Time;durP1;ratioP1;P1;durP2;ratioP2;P2;SDS_P1;SDS_P2;PMS_P1;PMS_P2;Temp;Humidity;BMP_temperature;BMP_pressure;BME280_temperature;BME280_humidity;BME280_pressure;Samples;Min_cycle;Max_cycle;Signal;HPM_P1;HPM_P2
2023/01/19 00:00:25;;;;;;;3.60;2.10;;;;;;;4.67;74.20;97871.16;105448;1259;75278;-24
2023/01/19 00:02:53;;;;;;;4.60;2.60;;;;;;;4.46;74.98;97865.70;105501;1260;61338;-24
2023/01/19 00:05:21;;;;;;;4.60;2.30;;;;;;;4.30;75.44;97860.39;105545;1257;62505;-24
2023/01/19 00:07:48;;;;;;;6.00;2.50;;;;;;;4.11;75.58;97863.11;105503;1260;76312;-24
2023/01/19 00:10:15;;;;;;;3.80;1.90;;;;;;;3.90;76.57;97867.36;105512;1259;75901;-24
2023/01/19 00:12:42;;;;;;;2.90;2.00;;;;;;;4.29;76.55;97878.45;105483;1254;75228;-23
2023/01/19 00:15:10;;;;;;;4.50;2.30;;;;;;;4.92;74.42;97881.66;105555;1259;61897;-23
2023/01/19 00:17:39;;;;;;;5.50;2.20;;;;;;;5.05;73.81;97882.24;105674;1259;61447;-24
2023/01/19 00:20:08;;;;;;;5.80;2.70;;;;;;;4.85;73.48;97892.14;105717;1260;76253;-24
2023/01/19 00:22:35;;;;;;;3.50;2.30;;;;;;;4.51;73.62;97896.27;105629;1260;75800;-24
2023/01/19 00:25:02;;;;;;;5.60;2.60;;;;;;;4.15;74.35;97898.77;105481;1254;74317;-24
2023/01/19 00:27:33;;;;;;;6.60;3.80;;;;;;;3.79;75.38;97898.38;105334;1261;61907;-24
2023/01/19 00:30:01;;;;;;;6.80;4.00;;;;;;;3.46;76.24;97899.48;105600;1254;62542;-24
2023/01/19 00:32:28;;;;;;;3.60;2.40;;;;;;;3.30;77.49;97891.88;105556;1258;76249;-24
2023/01/19 00:34:55;;;;;;;7.40;3.50;;;;;;;3.86;77.83;97887.91;105474;1254;75782;-24
2023/01/19 00:37:22;;;;;;;6.20;3.00;;;;;;;4.36;76.39;97883.10;105517;1257;75274;-24
2023/01/19 00:39:49;;;;;;;4.70;2.70;;;;;;;4.41;75.69;97887.55;105289;1258;62854;-23
2023/01/19 00:45:01;;;;;;;4.20;2.70;;;;;;;4.07;75.72;97876.10;105473;1260;75283;-24
2023/01/19 00:47:28;;;;;;;7.60;3.50;;;;;;;3.90;75.78;97869.82;105474;1254;76784;-24
2023/01/19 00:49:55;;;;;;;7.30;3.60;;;;;;;3.71;76.07;97860.88;105604;1254;74563;-24
2023/01/19 00:52:22;;;;;;;8.00;4.20;;;;;;;3.39;76.44;97862.13;105502;1254;62068;-24
2023/01/19 00:54:49;;;;;;;7.50;3.40;;;;;;;3.08;78.47;97860.48;105442;1259;62886;-24
2023/01/19 00:57:18;;;;;;;6.60;3.50;;;;;;;3.51;78.74;97871.55;105464;1257;75246;-24
2023/01/19 00:59:45;;;;;;;7.30;3.30;;;;;;;4.11;77.68;97879.64;105514;1254;76814;-24
2023/01/19 01:02:12;;;;;;;4.80;2.60;;;;;;;4.25;76.69;97884.95;105587;1260;74333;-24
2023/01/19 01:04:39;;;;;;;6.40;3.50;;;;;;;4.17;76.61;97894.48;105558;1259;63034;-23
2023/01/19 01:07:06;;;;;;;7.20;4.60;;;;;;;3.82;75.58;97893.36;105632;1259;62305;-24
2023/01/19 01:09:33;;;;;;;8.80;4.80;;;;;;;3.39;76.22;97897.64;105322;1254;76400;-24
2023/01/19 01:12:00;;;;;;;10.50;5.00;;;;;;;3.03;76.78;97897.00;105585;1258;76557;-24
2023/01/19 01:14:27;;;;;;;8.50;4.50;;;;;;;2.66;77.56;97905.99;105557;1259;72983;-24
2023/01/19 01:16:55;;;;;;;7.10;2.80;;;;;;;2.40;78.80;97915.77;105565;1255;63470;-24
2023/01/19 01:19:21;;;;;;;10.30;4.20;;;;;;;2.80;79.38;97913.47;105579;1254;61690;-24
2023/01/19 01:21:50;;;;;;;7.20;4.30;;;;;;;3.37;78.46;97909.23;105320;1259;76465;-24
2023/01/19 01:24:17;;;;;;;8.60;3.90;;;;;;;3.44;77.79;97915.80;105456;1254;76755;-23
2023/01/19 01:26:44;;;;;;;7.80;3.80;;;;;;;3.26;77.73;97911.57;105527;1254;73235;-24
2023/01/19 01:29:12;;;;;;;10.20;4.40;;;;;;;3.02;78.16;97919.00;105535;1257;62575;-24
2023/01/19 01:31:39;;;;;;;6.30;3.70;;;;;;;2.80;78.39;97917.96;105485;1254;61497;-24
2023/01/19 01:34:06;;;;;;;5.00;3.20;;;;;;;2.59;78.79;97920.67;105494;1259;76410;-24
2023/01/19 01:36:34;;;;;;;4.00;1.80;;;;;;;2.42;79.44;97925.75;105599;1254;75835;-24
2023/01/19 01:39:01;;;;;;;3.70;1.70;;;;;;;2.80;79.85;97927.17;105420;1259;73877;-24
2023/01/19 01:41:28;;;;;;;10.20;4.00;;;;;;;3.38;78.77;97929.27;105507;1252;61948;-24
2023/01/19 01:43:57;;;;;;;7.40;3.90;;;;;;;3.48;78.03;97924.44;105504;1254;61911;-24
2023/01/19 01:46:25;;;;;;;9.90;5.10;;;;;;;3.36;78.03;97917.55;105543;1259;74691;-24
2023/01/19 01:49:06;;;;;;;9.10;4.70;;;;;;;3.17;78.23;97916.27;105494;1254;75819;-24
2023/01/19 01:51:38;;;;;;;7.10;4.00;;;;;;;2.93;78.60;97917.73;105209;1254;73661;-24
2023/01/19 01:54:08;;;;;;;56.10;27.80;;;;;;;2.62;79.41;97911.59;105210;1254;61736;-24
2023/01/19 01:56:38;;;;;;;29.30;15.00;;;;;;;2.32;80.29;97906.85;105345;1253;62813;-24
2023/01/19 01:59:08;;;;;;;24.60;12.30;;;;;;;2.72;81.13;97911.23;105408;1254;76109;-24
2023/01/19 02:04:21;;;;;;;19.10;10.30;;;;;;;3.02;77.41;97902.23;105681;1260;75208;-24
2023/01/19 02:15:17;;;;;;;61.60;31.70;;;;;;;2.06;83.47;97878.08;105641;1258;76491;-24
2023/01/19 02:17:44;;;;;;;137.40;69.10;;;;;;;2.80;82.22;97877.45;105550;1259;75187;-24
2023/01/19 02:20:12;;;;;;;133.30;71.70;;;;;;;3.27;80.34;97880.44;105356;1260;62462;-24
2023/01/19 02:22:47;;;;;;;80.80;48.40;;;;;;;3.24;78.70;97882.03;105481;1259;62750;-24
2023/01/19 02:25:15;;;;;;;40.30;21.20;;;;;;;2.98;78.79;97878.44;105213;1260;75243;-24
2023/01/19 02:27:42;;;;;;;30.10;16.10;;;;;;;2.64;79.47;97872.19;105276;1254;75892;-24
2023/01/19 02:30:09;;;;;;;28.50;15.70;;;;;;;2.31;80.47;97869.24;105330;1254;75291;-24
2023/01/19 02:32:36;;;;;;;20.60;10.50;;;;;;;2.02;80.94;97871.29;105559;1254;61151;-24
2023/01/19 02:35:04;;;;;;;46.40;25.60;;;;;;;2.34;81.77;97871.95;105669;1259;62330;-24
2023/01/19 02:37:33;;;;;;;23.90;12.60;;;;;;;2.79;80.64;97867.55;105575;1260;75214;-24
2023/01/19 02:40:00;;;;;;;26.20;12.70;;;;;;;2.99;79.91;97868.45;105596;1260;76912;-24
2023/01/19 02:42:36;;;;;;;22.60;12.30;;;;;;;2.81;79.04;97870.02;105675;1260;73823;-24
2023/01/19 02:45:05;;;;;;;32.40;18.30;;;;;;;2.46;78.85;97875.80;105641;1263;61205;-24
2023/01/19 02:47:43;;;;;;;35.30;16.90;;;;;;;2.09;79.61;97884.02;105418;1254;61732;-24
2023/01/19 02:50:36;;;;;;;27.00;16.50;;;;;;;1.75;80.08;97881.97;105314;1260;75673;-25
2023/01/19 02:53:24;;;;;;;23.60;9.10;;;;;;;1.44;80.56;97883.69;105612;1254;75428;-24
2023/01/19 02:55:55;;;;;;;40.60;16.70;;;;;;;2.07;80.53;97888.77;105425;1259;73901;-24
2023/01/19 02:58:30;;;;;;;28.10;14.40;;;;;;;2.57;79.49;97878.14;105378;1254;61751;-24
2023/01/19 03:01:12;;;;;;;27.70;12.90;;;;;;;2.62;79.51;97871.84;105346;1254;61660;-24
2023/01/19 03:04:15;;;;;;;22.80;11.50;;;;;;;2.41;79.63;97861.90;105582;1254;75258;-24
2023/01/19 03:06:51;;;;;;;23.80;10.60;;;;;;;2.11;80.69;97859.27;105651;1259;76667;-24
2023/01/19 03:09:31;;;;;;;20.20;10.80;;;;;;;1.87;81.91;97854.66;105363;1254;75078;-25
2023/01/19 03:12:07;;;;;;;17.80;9.40;;;;;;;1.65;83.30;97844.90;105639;1254;61892;-25
2023/01/19 03:14:33;;;;;;;7.00;3.70;;;;;;;1.56;83.00;97845.83;105373;1260;62508;-24
2023/01/19 03:17:02;;;;;;;9.40;5.40;;;;;;;2.07;82.18;97844.92;105485;1254;75228;-24
2023/01/19 03:19:34;;;;;;;10.10;6.20;;;;;;;2.69;80.54;97845.16;105667;1258;76758;-26
2023/01/19 03:22:08;;;;;;;13.70;7.20;;;;;;;2.76;79.60;97836.77;105689;1259;73909;-24
2023/01/19 03:24:38;;;;;;;13.20;6.30;;;;;;;2.63;79.74;97835.59;105637;1255;62561;-25
2023/01/19 03:27:09;;;;;;;8.60;4.70;;;;;;;2.46;79.75;97845.67;105400;1258;62528;-24
2023/01/19 03:29:36;;;;;;;6.50;3.70;;;;;;;2.17;80.04;97862.13;105429;1254;76553;-24
2023/01/19 03:32:06;;;;;;;5.00;2.70;;;;;;;1.94;80.92;97856.38;105347;1254;75581;-24
2023/01/19 03:34:33;;;;;;;4.80;2.10;;;;;;;2.00;81.83;97866.30;105365;1259;73924;-24
2023/01/19 03:37:02;;;;;;;6.00;3.20;;;;;;;2.46;80.88;97872.02;105493;1254;61753;-25
2023/01/19 03:39:29;;;;;;;6.60;2.80;;;;;;;2.67;80.17;97872.84;105437;1263;62753;-24
2023/01/19 03:41:57;;;;;;;9.40;5.50;;;;;;;2.62;79.96;97873.17;105562;1260;76193;-24
2023/01/19 03:44:25;;;;;;;9.50;6.00;;;;;;;2.41;80.26;97863.27;105614;1260;76806;-24
2023/01/19 03:46:52;;;;;;;7.70;5.60;;;;;;;2.06;81.72;97845.87;105604;1254;74116;-24
2023/01/19 03:49:19;;;;;;;12.10;5.40;;;;;;;1.90;82.55;97842.47;105240;1254;61141;-24
2023/01/19 03:51:46;;;;;;;23.80;11.20;;;;;;;1.75;83.55;97822.89;105369;1256;61529;-24
2023/01/19 03:54:13;;;;;;;28.40;14.70;;;;;;;2.20;83.28;97822.55;105440;1258;75115;-24
2023/01/19 03:56:42;;;;;;;35.90;16.40;;;;;;;2.72;81.30;97829.67;105544;1259;76861;-24
2023/01/19 03:59:09;;;;;;;21.50;11.30;;;;;;;2.79;80.27;97833.48;105806;1254;74069;-24
2023/01/19 04:01:36;;;;;;;20.00;10.30;;;;;;;2.74;80.55;97850.44;105726;1259;61917;-25
2023/01/19 04:04:03;;;;;;;31.90;14.90;;;;;;;2.54;80.13;97869.08;105677;1254;61109;-24
2023/01/19 04:06:30;;;;;;;26.80;14.10;;;;;;;2.28;80.36;97864.13;105653;1254;76310;-24
2023/01/19 04:08:58;;;;;;;9.30;6.00;;;;;;;2.11;80.94;97850.16;105726;1259;76965;-24
2023/01/19 04:11:25;;;;;;;17.20;9.40;;;;;;;2.57;81.15;97843.55;105637;1254;74163;-25
2023/01/19 04:13:52;;;;;;;17.70;10.50;;;;;;;3.17;79.58;97846.11;105655;1254;61584;-24
2023/01/19 04:16:20;;;;;;;16.90;9.10;;;;;;;3.23;78.58;97840.21;105683;1254;61167;-24
2023/01/19 04:18:47;;;;;;;13.40;7.60;;;;;;;3.13;78.73;97838.85;105706;1259;76199;-24
2023/01/19 04:21:14;;;;;;;19.50;11.80;;;;;;;3.00;79.40;97834.12;105704;1254;76698;-24
2023/01/19 04:23:43;;;;;;;31.60;17.50;;;;;;;2.74;79.44;97827.45;105668;1254;73500;-24
2023/01/19 04:26:10;;;;;;;28.90;15.20;;;;;;;2.34;80.86;97825.73;105545;1254;61769;-25
2023/01/19 04:28:37;;;;;;;15.30;8.70;;;;;;;2.17;81.90;97827.67;105627;1254;62459;-25
2023/01/19 04:31:05;;;;;;;32.40;17.60;;;;;;;2.62;82.02;97826.09;105544;1256;75275;-24
2023/01/19 04:33:32;;;;;;;101.20;47.20;;;;;;;3.25;80.51;97820.17;105613;1254;77013;-24
2023/01/19 04:35:59;;;;;;;36.10;18.50;;;;;;;3.43;79.84;97810.65;105633;1254;74122;-24
2023/01/19 04:38:26;;;;;;;59.90;26.60;;;;;;;3.26;79.39;97805.36;105508;1254;62542;-24
2023/01/19 04:40:53;;;;;;;72.50;38.60;;;;;;;2.94;80.02;97805.05;105539;1254;61481;-25
2023/01/19 04:43:21;;;;;;;66.90;35.00;;;;;;;2.53;82.13;97809.88;105692;1259;76459;-25
2023/01/19 04:45:48;;;;;;;54.10;29.80;;;;;;;2.48;82.69;97805.73;105638;1257;77064;-25
2023/01/19 04:48:17;;;;;;;19.20;9.60;;;;;;;2.41;82.82;97804.33;105578;1254;74070;-25
2023/01/19 04:50:44;;;;;;;31.80;14.00;;;;;;;2.92;82.54;97801.93;105675;1256;61700;-24
2023/01/19 04:53:12;;;;;;;31.90;18.30;;;;;;;3.54;80.81;97809.86;105616;1254;61705;-24
2023/01/19 04:55:39;;;;;;;24.60;13.50;;;;;;;3.60;79.47;97825.58;105497;1254;76264;-24
2023/01/19 04:58:06;;;;;;;22.80;13.80;;;;;;;3.37;79.13;97828.13;105553;1257;75779;-24
2023/01/19 05:00:34;;;;;;;17.40;9.50;;;;;;;3.08;79.83;97836.44;105562;1254;75100;-24
2023/01/19 05:03:01;;;;;;;18.00;9.40;;;;;;;2.87;80.46;97839.48;105539;1259;61835;-24
2023/01/19 05:05:29;;;;;;;13.00;8.10;;;;;;;2.63;81.08;97827.52;105483;1258;62647;-24
2023/01/19 05:07:55;;;;;;;8.90;5.70;;;;;;;2.45;82.49;97824.44;105495;1254;76141;-24
2023/01/19 05:10:22;;;;;;;11.30;6.20;;;;;;;2.77;83.48;97836.02;105637;1259;76791;-24
2023/01/19 05:12:50;;;;;;;12.70;8.30;;;;;;;3.51;81.65;97871.38;105561;1254;73822;-24
2023/01/19 05:15:17;;;;;;;11.60;6.60;;;;;;;3.52;80.03;97867.17;105482;1254;61834;-24
2023/01/19 05:17:44;;;;;;;50.00;25.10;;;;;;;3.31;80.73;97870.85;105480;1254;61444;-24
2023/01/19 05:20:12;;;;;;;35.20;18.50;;;;;;;3.17;81.42;97897.95;105503;1254;76470;-25
2023/01/19 05:22:47;;;;;;;26.40;12.80;;;;;;;2.99;81.76;97920.58;105451;1254;76954;-25
2023/01/19 05:25:14;;;;;;;17.50;8.40;;;;;;;2.79;82.37;97928.95;105411;1254;74203;-25
2023/01/19 05:27:42;;;;;;;18.40;9.30;;;;;;;2.78;83.14;97930.58;105483;1254;63605;-25
2023/01/19 05:30:10;;;;;;;17.10;9.90;;;;;;;3.19;82.01;97929.52;105405;1257;62624;-24
2023/01/19 05:32:37;;;;;;;15.90;9.50;;;;;;;3.18;81.01;97919.80;105284;1254;74592;-25
2023/01/19 05:35:04;;;;;;;12.40;7.20;;;;;;;2.77;81.86;97904.91;105494;1254;76788;-25
2023/01/19 05:37:31;;;;;;;10.70;6.90;;;;;;;2.40;83.50;97900.72;105320;1260;75236;-25
2023/01/19 05:39:58;;;;;;;11.30;6.00;;;;;;;2.23;84.66;97887.90;105521;1254;61161;-27
2023/01/19 05:42:25;;;;;;;9.70;5.70;;;;;;;2.14;85.25;97880.14;105623;1254;61703;-25
2023/01/19 05:44:52;;;;;;;6.30;3.50;;;;;;;2.06;85.67;97876.33;105582;1254;75310;-24
2023/01/19 05:47:19;;;;;;;13.10;7.60;;;;;;;2.55;85.73;97872.08;105659;1254;76521;-24
2023/01/19 05:49:46;;;;;;;17.10;7.60;;;;;;;3.18;83.72;97864.92;105666;1258;75412;-25
2023/01/19 05:52:13;;;;;;;322.70;140.80;;;;;;;3.18;82.59;97849.98;105570;1254;61128;-22
2023/01/19 05:54:40;;;;;;;119.00;51.20;;;;;;;2.86;84.11;97835.27;105652;1257;62505;-24
2023/01/19 05:57:08;;;;;;;82.80;41.40;;;;;;;2.82;84.68;97831.92;105568;1257;75994;-25
2023/01/19 05:59:35;;;;;;;23.60;11.60;;;;;;;2.39;86.34;97807.40;105528;1259;76546;-23
2023/01/19 06:02:02;;;;;;;24.00;12.20;;;;;;;2.78;86.92;97814.73;105587;1256;75246;-22
2023/01/19 06:04:29;;;;;;;166.60;70.90;;;;;;;3.29;85.10;97809.31;105610;1254;62767;-22
2023/01/19 06:06:56;;;;;;;79.70;27.80;;;;;;;3.03;85.49;97793.92;105367;1259;62558;-22
2023/01/19 06:09:23;;;;;;;147.50;53.50;;;;;;;3.06;85.22;97789.94;105619;1259;76032;-22
2023/01/19 06:11:53;;;;;;;138.30;48.10;;;;;;;2.62;87.00;97786.67;105617;1254;75864;-22
2023/01/19 06:14:20;;;;;;;140.10;59.10;;;;;;;2.53;88.28;97781.30;105507;1254;75469;-23
2023/01/19 06:16:46;;;;;;;36.90;18.90;;;;;;;2.80;87.92;97776.66;105499;1254;61543;-23
2023/01/19 06:19:14;;;;;;;56.10;36.60;;;;;;;2.98;86.76;97771.11;105634;1254;62881;-22
2023/01/19 06:21:41;;;;;;;138.90;50.10;;;;;;;2.94;86.56;97767.98;105587;1259;75099;-23
2023/01/19 06:24:08;;;;;;;159.30;86.50;;;;;;;2.74;87.61;97763.36;105458;1259;76512;-22
2023/01/19 06:26:36;;;;;;;53.80;27.60;;;;;;;2.67;88.82;97762.85;105471;1254;75218;-23
2023/01/19 06:29:03;;;;;;;31.60;17.20;;;;;;;3.21;87.73;97760.73;105541;1259;61545;-23
2023/01/19 06:31:30;;;;;;;19.00;11.20;;;;;;;3.80;85.19;97755.16;105465;1253;61196;-22
2023/01/19 06:33:57;;;;;;;16.40;8.00;;;;;;;3.80;83.45;97747.10;105452;1254;76313;-22
2023/01/19 06:36:24;;;;;;;23.70;11.90;;;;;;;3.64;83.62;97741.33;104277;1258;1611891;-22
2023/01/19 06:38:51;;;;;;;21.30;14.20;;;;;;;3.40;84.29;97736.75;105432;1259;75104;-22
2023/01/19 06:41:17;;;;;;;44.60;26.40;;;;;;;3.00;86.08;97724.73;105474;1254;61481;-22
2023/01/19 06:43:45;;;;;;;42.80;23.50;;;;;;;2.93;87.40;97715.08;105464;1253;61794;-22
2023/01/19 06:46:12;;;;;;;22.70;11.80;;;;;;;3.59;85.86;97706.89;105523;1259;75213;-22
2023/01/19 06:48:40;;;;;;;19.10;10.30;;;;;;;3.91;83.80;97697.84;105781;1257;77047;-22
2023/01/19 06:51:07;;;;;;;15.00;7.40;;;;;;;3.91;83.21;97696.10;105465;1254;75003;-22
2023/01/19 06:53:34;;;;;;;14.60;8.80;;;;;;;3.78;83.54;97693.34;105461;1256;61803;-22
2023/01/19 06:56:01;;;;;;;16.60;9.30;;;;;;;3.60;84.36;97687.91;105370;1259;62686;-23
2023/01/19 06:58:30;;;;;;;20.70;8.70;;;;;;;3.44;85.26;97684.82;105526;1254;76402;-22
2023/01/19 07:01:02;;;;;;;12.90;7.00;;;;;;;3.43;85.92;97688.82;105583;1254;75703;-22
2023/01/19 07:03:29;;;;;;;15.80;6.70;;;;;;;4.08;84.88;97692.77;105613;1260;75011;-22
2023/01/19 07:05:56;;;;;;;16.60;9.50;;;;;;;4.65;82.71;97702.14;105520;1259;63010;-22
2023/01/19 07:08:23;;;;;;;18.40;10.40;;;;;;;4.82;81.77;97706.31;105396;1259;62676;-22
2023/01/19 07:10:50;;;;;;;35.00;23.80;;;;;;;4.89;81.83;97704.73;105520;1254;74997;-22
2023/01/19 07:13:38;;;;;;;44.80;26.00;;;;;;;4.92;82.38;97702.59;105457;1254;74845;-22
2023/01/19 07:16:10;;;;;;;36.00;18.70;;;;;;;4.86;82.61;97696.57;105263;1254;74142;-22
2023/01/19 07:18:37;;;;;;;51.60;27.50;;;;;;;4.74;83.32;97697.73;105631;1254;61673;-22
2023/01/19 07:21:05;;;;;;;52.40;30.30;;;;;;;4.61;84.23;97694.42;105723;1259;62657;-23
2023/01/19 07:23:32;;;;;;;106.60;58.10;;;;;;;4.92;83.84;97694.51;105673;1260;75263;-22
2023/01/19 07:26:00;;;;;;;133.40;68.80;;;;;;;5.05;82.99;97690.92;105629;1258;75516;-22
2023/01/19 07:28:28;;;;;;;146.40;78.00;;;;;;;5.46;82.12;97688.85;105597;1259;74090;-23
2023/01/19 07:30:55;;;;;;;47.00;26.70;;;;;;;5.44;81.89;97683.84;105281;1254;61457;-23
2023/01/19 07:33:23;;;;;;;63.50;36.80;;;;;;;5.36;81.84;97681.05;105489;1253;61746;-23
2023/01/19 07:35:51;;;;;;;24.10;11.40;;;;;;;5.23;82.75;97672.84;105661;1254;76142;-23
2023/01/19 07:38:18;;;;;;;17.00;10.40;;;;;;;5.15;83.33;97667.09;105728;1254;75858;-23
2023/01/19 07:40:45;;;;;;;13.40;7.00;;;;;;;5.08;84.03;97667.46;105544;1254;75635;-22
2023/01/19 07:43:13;;;;;;;22.40;13.00;;;;;;;5.73;83.30;97663.60;105497;1254;62539;-23
2023/01/19 07:45:41;;;;;;;13.80;8.20;;;;;;;6.35;80.65;97649.98;105490;1254;62840;-23
2023/01/19 07:48:08;;;;;;;14.20;7.60;;;;;;;6.49;79.46;97646.15;105463;1254;76328;-23
2023/01/19 07:50:35;;;;;;;13.90;7.20;;;;;;;6.50;79.58;97650.93;105448;1259;75840;-23
2023/01/19 07:53:07;;;;;;;9.40;5.60;;;;;;;6.36;79.79;97653.80;105526;1258;75230;-23
2023/01/19 07:55:34;;;;;;;9.10;5.00;;;;;;;6.30;80.21;97653.08;105275;1254;62736;-23
2023/01/19 07:58:05;;;;;;;5.30;3.40;;;;;;;6.27;80.69;97653.23;105611;1257;61852;-22
2023/01/19 08:00:34;;;;;;;5.40;2.90;;;;;;;6.77;80.45;97656.16;105481;1258;76366;-23
2023/01/19 08:03:01;;;;;;;14.30;7.90;;;;;;;7.28;78.58;97656.20;105424;1260;77117;-23
2023/01/19 08:05:30;;;;;;;8.30;3.40;;;;;;;7.42;78.10;97654.38;105550;1254;73817;-22
2023/01/19 08:07:57;;;;;;;5.90;3.60;;;;;;;7.43;78.10;97651.70;105422;1254;61923;-22
2023/01/19 08:10:25;;;;;;;7.00;3.10;;;;;;;7.30;78.21;97641.09;105416;1254;61158;-22
2023/01/19 08:12:53;;;;;;;7.40;3.20;;;;;;;7.27;78.95;97631.69;105456;1256;75224;-22
2023/01/19 08:15:22;;;;;;;4.30;2.70;;;;;;;7.26;79.37;97627.80;105410;1256;76785;-22
2023/01/19 08:17:56;;;;;;;4.80;2.40;;;;;;;7.48;79.68;97616.70;105466;1254;74231;-23
2023/01/19 08:20:24;;;;;;;7.30;2.70;;;;;;;8.03;78.08;97612.00;105273;1261;62897;-22
2023/01/19 08:22:58;;;;;;;7.70;3.40;;;;;;;8.25;76.86;97619.30;105583;1258;62808;-22
2023/01/19 08:25:34;;;;;;;4.60;2.90;;;;;;;8.39;76.51;97630.41;105565;1257;75486;-22
2023/01/19 08:28:03;;;;;;;7.60;2.90;;;;;;;8.51;76.98;97641.58;105517;1254;75448;-23
2023/01/19 08:30:30;;;;;;;4.90;3.20;;;;;;;8.64;76.99;97641.44;105593;1257;75219;-22
2023/01/19 08:33:02;;;;;;;4.60;2.80;;;;;;;8.72;77.05;97637.93;105559;1254;62533;-23
2023/01/19 08:35:30;;;;;;;5.70;2.40;;;;;;;8.72;77.06;97635.08;105303;1254;61014;-22
2023/01/19 08:38:00;;;;;;;3.30;1.90;;;;;;;8.66;77.09;97645.41;105281;1254;76163;-23
2023/01/19 08:40:29;;;;;;;2.00;1.60;;;;;;;8.72;77.29;97643.23;105390;1254;76379;-23
2023/01/19 08:43:02;;;;;;;6.80;2.10;;;;;;;9.20;75.75;97643.52;105427;1259;74078;-23
2023/01/19 08:45:32;;;;;;;4.10;2.20;;;;;;;9.55;75.19;97650.08;105227;1254;61310;-23
2023/01/19 08:47:59;;;;;;;4.60;1.90;;;;;;;9.68;74.53;97653.89;105499;1258;61788;-23
2023/01/19 08:50:27;;;;;;;5.20;2.20;;;;;;;9.61;74.12;97651.58;105560;1254;76456;-23
2023/01/19 08:52:56;;;;;;;4.30;2.00;;;;;;;9.41;74.27;97643.16;105328;1254;75618;-23
2023/01/19 08:55:24;;;;;;;7.10;2.30;;;;;;;9.17;74.86;97638.11;105308;1254;75191;-23
2023/01/19 08:57:52;;;;;;;6.90;3.30;;;;;;;8.99;76.18;97634.56;105518;1254;61791;-23
2023/01/19 09:00:20;;;;;;;5.50;2.80;;;;;;;8.85;77.37;97635.80;105620;1254;61572;-22
2023/01/19 09:02:47;;;;;;;9.20;5.20;;;;;;;9.11;76.92;97640.54;105478;1259;75241;-23
2023/01/19 09:05:14;;;;;;;4.00;2.70;;;;;;;9.42;76.03;97639.16;105559;1259;76480;-23
2023/01/19 09:07:43;;;;;;;7.10;3.20;;;;;;;9.38;75.54;97652.65;105560;1254;74212;-23
2023/01/19 09:10:10;;;;;;;7.00;3.40;;;;;;;9.22;76.55;97659.40;105253;1260;63188;-23
2023/01/19 09:12:37;;;;;;;6.20;2.80;;;;;;;9.03;77.20;97652.55;105515;1258;61774;-23
2023/01/19 09:15:05;;;;;;;6.20;2.60;;;;;;;8.90;77.60;97649.28;105339;1259;74667;-23
2023/01/19 09:17:33;;;;;;;4.20;2.20;;;;;;;9.22;77.26;97642.73;105336;1254;75717;-23
2023/01/19 09:20:00;;;;;;;16.70;4.30;;;;;;;9.37;76.50;97638.33;105463;1254;75081;-23
2023/01/19 09:22:27;;;;;;;5.20;2.30;;;;;;;9.26;76.83;97634.45;105355;1259;63102;-22
2023/01/19 09:24:54;;;;;;;8.00;3.90;;;;;;;9.05;77.83;97629.23;105471;1255;62477;-23
2023/01/19 09:27:21;;;;;;;4.90;2.40;;;;;;;8.90;78.77;97623.20;105492;1253;76031;-23
2023/01/19 09:29:51;;;;;;;6.10;2.20;;;;;;;9.08;78.80;97617.14;105497;1254;75813;-23
2023/01/19 09:32:19;;;;;;;4.70;2.10;;;;;;;9.31;78.03;97614.55;105312;1261;75395;-23
2023/01/19 09:34:46;;;;;;;4.70;2.60;;;;;;;9.26;77.99;97617.31;105476;1254;61789;-23
2023/01/19 09:37:14;;;;;;;4.20;2.70;;;;;;;9.10;78.62;97621.11;105346;1254;61124;-22
2023/01/19 09:39:42;;;;;;;2.70;2.10;;;;;;;8.90;79.11;97620.65;105502;1258;75198;-23
2023/01/19 09:42:33;;;;;;;5.40;2.80;;;;;;;9.03;79.10;97612.60;105532;1254;76524;-22
2023/01/19 09:45:02;;;;;;;10.50;3.60;;;;;;;9.32;77.84;97614.45;105253;1254;73991;-23
2023/01/19 09:47:29;;;;;;;13.20;5.40;;;;;;;9.23;77.54;97611.14;105394;1254;62895;-23
2023/01/19 09:50:05;;;;;;;5.60;2.90;;;;;;;9.02;78.36;97609.59;105342;1254;61743;-23
2023/01/19 09:52:34;;;;;;;3.90;2.90;;;;;;;8.74;79.15;97609.36;105561;1254;76326;-23
2023/01/19 09:55:02;;;;;;;4.00;2.60;;;;;;;8.68;79.71;97604.52;105327;1254;75470;-23
2023/01/19 09:57:29;;;;;;;9.00;3.20;;;;;;;8.97;79.13;97598.27;105463;1258;74082;-23
2023/01/19 09:59:59;;;;;;;8.20;4.00;;;;;;;9.01;78.46;97594.59;105466;1259;61716;-23
2023/01/19 10:02:35;;;;;;;13.30;4.90;;;;;;;8.83;78.85;97594.23;105493;1254;61488;-23
2023/01/19 10:05:27;;;;;;;11.30;4.40;;;;;;;8.58;79.54;97587.14;105215;1263;75265;-23
2023/01/19 10:08:16;;;;;;;12.20;5.80;;;;;;;8.57;80.50;97583.42;105484;1254;76832;-23
2023/01/19 10:10:51;;;;;;;10.20;4.60;;;;;;;8.99;79.55;97577.31;105352;1259;73850;-23
2023/01/19 10:13:30;;;;;;;19.90;9.80;;;;;;;9.04;78.43;97575.05;105390;1259;62567;-23
2023/01/19 10:16:38;;;;;;;11.70;6.20;;;;;;;8.87;79.05;97564.27;105367;1259;62452;-24
2023/01/19 10:19:21;;;;;;;12.10;5.90;;;;;;;8.60;79.71;97564.16;105500;1254;75934;-23
2023/01/19 10:21:48;;;;;;;7.90;4.50;;;;;;;8.72;80.48;97553.96;105346;1254;75526;-22
2023/01/19 10:24:32;;;;;;;11.90;6.30;;;;;;;9.07;78.92;97554.36;105392;1259;74823;-22
2023/01/19 10:26:59;;;;;;;12.70;6.20;;;;;;;9.13;78.56;97556.09;105411;1259;63110;-24
2023/01/19 10:29:33;;;;;;;10.60;4.80;;;;;;;9.02;78.87;97544.83;105472;1259;62857;-25
2023/01/19 10:32:24;;;;;;;8.30;3.30;;;;;;;8.81;79.95;97542.54;109288;1253;75934;-23
2023/01/19 10:34:52;;;;;;;10.10;4.30;;;;;;;8.86;80.45;97541.20;109176;1254;76363;-23
2023/01/19 10:37:31;;;;;;;11.50;4.50;;;;;;;9.32;79.52;97534.57;109154;1253;74149;-23
2023/01/19 10:40:10;;;;;;;10.80;4.20;;;;;;;9.40;78.44;97533.25;109277;1254;62179;-23
2023/01/19 10:42:39;;;;;;;10.70;4.40;;;;;;;9.28;78.64;97521.63;109477;1254;61042;-23
2023/01/19 10:45:19;;;;;;;10.50;4.20;;;;;;;9.10;79.30;97519.16;109201;1253;76010;-24
2023/01/19 10:47:47;;;;;;;5.90;3.20;;;;;;;9.01;79.98;97527.29;109400;1253;76414;-24
2023/01/19 10:50:27;;;;;;;10.60;4.60;;;;;;;9.43;78.65;97520.54;109146;1253;74906;-24
2023/01/19 10:53:02;;;;;;;10.70;5.10;;;;;;;9.60;77.66;97524.58;109158;1253;60913;-24
2023/01/19 10:55:30;;;;;;;10.90;4.80;;;;;;;9.48;77.74;97520.88;109312;1254;62381;-25
2023/01/19 10:57:57;;;;;;;11.70;4.80;;;;;;;9.28;78.36;97527.20;109318;1253;75812;-25
2023/01/19 11:00:37;;;;;;;13.20;4.10;;;;;;;9.10;79.42;97528.35;109240;1253;76340;-25
2023/01/19 11:03:24;;;;;;;7.30;4.00;;;;;;;9.31;79.80;97525.05;109250;1254;74865;-25
2023/01/19 11:05:51;;;;;;;11.30;4.50;;;;;;;9.71;77.99;97521.04;109389;1254;59073;-25
2023/01/19 11:08:23;;;;;;;9.80;4.00;;;;;;;9.71;77.61;97517.73;109438;1254;61170;-25
2023/01/19 11:10:57;;;;;;;15.90;5.30;;;;;;;9.52;78.43;97520.27;109149;1254;75947;-25
2023/01/19 11:13:24;;;;;;;11.00;4.50;;;;;;;9.36;78.77;97517.70;109178;1253;76398;-25
2023/01/19 11:15:53;;;;;;;9.30;4.00;;;;;;;9.31;79.58;97525.67;109415;1253;74504;-25
2023/01/19 11:18:48;;;;;;;11.10;6.20;;;;;;;9.76;78.29;97537.86;109193;1254;62479;-25
2023/01/19 11:21:15;;;;;;;12.50;4.90;;;;;;;9.88;77.39;97536.44;109257;1254;62592;-24
2023/01/19 11:23:45;;;;;;;13.70;6.20;;;;;;;9.69;77.48;97521.67;109417;1254;76162;-24
2023/01/19 11:26:15;;;;;;;17.00;7.50;;;;;;;9.47;78.51;97523.38;109209;1254;76227;-25
2023/01/19 11:28:45;;;;;;;17.00;7.60;;;;;;;9.29;79.51;97513.42;109143;1253;73638;-25
2023/01/19 11:31:12;;;;;;;9.90;5.80;;;;;;;9.55;79.41;97511.68;109264;1254;61089;-25
2023/01/19 11:33:51;;;;;;;6.80;4.10;;;;;;;9.84;78.01;97522.77;109381;1254;61371;-24
2023/01/19 11:36:22;;;;;;;11.50;6.20;;;;;;;9.82;77.81;97512.23;109343;1253;75884;-25
2023/01/19 11:38:51;;;;;;;13.50;6.10;;;;;;;9.64;78.12;97514.25;109054;1253;76831;-25
2023/01/19 11:41:20;;;;;;;10.20;5.40;;;;;;;9.49;79.16;97521.63;109161;1254;74724;-25
2023/01/19 11:43:49;;;;;;;8.80;4.70;;;;;;;9.51;79.57;97515.86;109135;1254;63146;-25
2023/01/19 11:46:16;;;;;;;11.70;4.50;;;;;;;9.91;78.22;97494.27;109196;1254;61251;-25
2023/01/19 11:49:00;;;;;;;11.20;4.50;;;;;;;9.97;77.29;97490.56;109335;1254;75636;-25